Time;durP1;ratioP1;P1;durP2;ratioP2;P2;SDS_P1;SDS_P2;PMS_P1;PMS_P2;Temp;Humidity;BMP_temperature;BMP_pressure;BME280_temperature;BME280_humidity;BME280_pressure;Samples;Min_cycle;Max_cycle;Signal;HPM_P1;HPM_P2
2023/06/17 00:02:20;;;;;;;9.43;7.28;;;15.10;54.00;;;;;;5054630;28;20032;-80
2023/06/17 00:04:46;;;;;;;10.55;6.75;;;15.10;54.20;;;;;;5054553;28;20137;-79
2023/06/17 00:07:12;;;;;;;11.20;6.95;;;15.10;54.40;;;;;;5054260;28;20021;-80
2023/06/17 00:09:41;;;;;;;7.25;6.47;;;15.00;54.40;;;;;;5054153;28;20055;-80
2023/06/17 00:12:07;;;;;;;9.85;6.53;;;15.00;54.40;;;;;;5054370;28;20049;-81
2023/06/17 00:14:33;;;;;;;8.32;6.50;;;15.00;54.50;;;;;;5036118;28;20021;-79
2023/06/17 00:17:00;;;;;;;8.40;6.60;;;15.00;54.50;;;;;;5054278;28;20081;-80
2023/06/17 00:19:27;;;;;;;8.60;6.53;;;14.90;54.60;;;;;;5054166;28;20021;-80
2023/06/17 00:21:53;;;;;;;10.38;7.00;;;14.90;54.90;;;;;;5054260;28;20433;-79
2023/06/17 00:24:19;;;;;;;12.23;7.20;;;14.90;54.90;;;;;;5054155;28;20047;-76
2023/06/17 00:26:45;;;;;;;9.25;7.22;;;14.90;54.80;;;;;;5054026;28;20016;-71
2023/06/17 00:29:11;;;;;;;10.40;6.95;;;14.80;54.60;;;;;;5054023;28;20017;-71
2023/06/17 00:31:37;;;;;;;10.52;7.10;;;14.90;54.90;;;;;;5053934;28;20486;-71
2023/06/17 00:34:02;;;;;;;9.32;7.28;;;14.90;54.80;;;;;;5053891;28;20473;-71
2023/06/17 00:36:28;;;;;;;10.57;7.30;;;14.90;54.80;;;;;;5036014;28;20040;-71
2023/06/17 00:38:53;;;;;;;12.52;6.95;;;14.80;54.90;;;;;;5053788;28;20025;-71
2023/06/17 00:41:20;;;;;;;8.40;6.45;;;14.80;54.80;;;;;;5053754;28;20568;-71
2023/06/17 00:43:46;;;;;;;9.15;6.65;;;14.70;55.20;;;;;;5052828;28;20619;-71
2023/06/17 00:46:21;;;;;;;8.73;6.60;;;14.70;55.40;;;;;;5053565;28;20074;-71
2023/06/17 00:48:47;;;;;;;;;;;14.60;55.50;;;;;;5053767;28;20078;-71
2023/06/17 00:51:12;;;;;;;;;;;14.60;55.80;;;;;;5053927;28;19928;-71
2023/06/17 00:53:38;;;;;;;10.98;7.15;;;14.60;55.80;;;;;;5053581;28;19911;-71
2023/06/17 00:56:04;;;;;;;12.73;6.68;;;14.60;55.90;;;;;;5053507;28;20032;-72
2023/06/17 00:58:30;;;;;;;10.07;6.78;;;14.60;55.80;;;;;;5053381;28;20021;-71
2023/06/17 01:00:56;;;;;;;12.02;6.85;;;14.60;55.80;;;;;;5053608;28;20075;-81
2023/06/17 01:03:22;;;;;;;8.60;7.00;;;14.70;55.70;;;;;;5035460;28;20021;-71
2023/06/17 01:05:50;;;;;;;12.27;7.00;;;14.70;55.40;;;;;;5053394;28;20017;-71
2023/06/17 01:08:34;;;;;;;8.23;7.00;;;14.70;55.40;;;;;;5053151;28;20049;-70
2023/06/17 01:11:08;;;;;;;8.00;6.85;;;14.70;55.60;;;;;;5053321;28;20044;-70
2023/06/17 01:13:35;;;;;;;9.82;6.40;;;14.70;55.40;;;;;;5053180;28;20111;-71
2023/06/17 01:16:02;;;;;;;8.52;6.35;;;14.80;55.20;;;;;;5035462;28;20064;-70
2023/06/17 01:18:29;;;;;;;10.73;7.07;;;14.80;55.30;;;;;;5052933;28;20017;-71
2023/06/17 01:20:56;;;;;;;8.85;6.68;;;14.80;55.10;;;;;;5053085;28;20013;-80
2023/06/17 01:23:24;;;;;;;10.25;6.32;;;14.80;55.20;;;;;;5053211;28;20103;-81
2023/06/17 01:25:51;;;;;;;8.70;6.88;;;14.60;55.60;;;;;;5053035;28;20014;-80
2023/06/17 01:28:17;;;;;;;12.02;6.57;;;14.60;55.60;;;;;;5053047;28;20473;-81
2023/06/17 01:30:47;;;;;;;10.18;7.00;;;14.60;55.80;;;;;;5052899;28;20393;-81
2023/06/17 01:33:15;;;;;;;9.80;7.03;;;14.60;56.00;;;;;;5053126;28;20031;-81
2023/06/17 01:35:46;;;;;;;9.38;7.10;;;14.50;56.40;;;;;;5052987;28;20021;-71
2023/06/17 01:38:20;;;;;;;9.35;6.82;;;14.40;56.60;;;;;;5053024;28;20112;-78
2023/06/17 01:40:51;;;;;;;12.40;7.55;;;14.40;56.60;;;;;;5052630;28;20033;-71
2023/06/17 01:43:17;;;;;;;10.68;7.15;;;14.40;56.90;;;;;;5052638;28;20021;-73
2023/06/17 01:45:45;;;;;;;10.40;6.78;;;14.20;57.10;;;;;;5052725;28;20053;-71
2023/06/17 01:48:11;;;;;;;11.02;7.30;;;14.20;58.00;;;;;;5052661;28;20421;-76
2023/06/17 01:50:37;;;;;;;8.30;6.00;;;14.20;57.50;;;;;;5034865;28;20078;-72
2023/06/17 01:53:02;;;;;;;8.90;6.88;;;14.20;57.50;;;;;;5052600;28;20028;-71
2023/06/17 01:55:28;;;;;;;11.02;6.75;;;14.10;57.70;;;;;;5058111;28;20060;-70
2023/06/17 01:57:53;;;;;;;8.57;6.22;;;14.10;57.80;;;;;;5059299;28;20059;-71
2023/06/17 02:00:19;;;;;;;9.80;6.68;;;14.20;57.80;;;;;;5059218;28;20098;-71
2023/06/17 02:02:45;;;;;;;10.10;6.40;;;14.20;57.60;;;;;;5041338;28;20028;-70
2023/06/17 02:05:10;;;;;;;9.15;6.75;;;14.20;57.60;;;;;;5059607;28;20021;-71
2023/06/17 02:07:37;;;;;;;10.18;6.53;;;14.20;57.70;;;;;;5059012;28;20130;-71
2023/06/17 02:10:03;;;;;;;7.45;6.10;;;14.20;57.90;;;;;;5059215;28;20052;-71
2023/06/17 02:12:29;;;;;;;11.15;7.05;;;14.10;58.10;;;;;;5059140;28;20380;-80
2023/06/17 02:14:55;;;;;;;9.15;6.15;;;14.10;58.30;;;;;;5059544;28;20081;-71
2023/06/17 02:17:23;;;;;;;9.85;6.85;;;14.10;58.50;;;;;;5043407;28;20041;-80
2023/06/17 02:19:49;;;;;;;8.85;6.20;;;14.00;58.60;;;;;;5065097;28;20044;-80
2023/06/17 02:22:15;;;;;;;8.40;5.93;;;14.00;58.60;;;;;;5062876;28;20094;-80
2023/06/17 02:24:40;;;;;;;11.57;6.50;;;14.00;58.60;;;;;;5062351;28;20465;-79
2023/06/17 02:27:06;;;;;;;8.18;6.15;;;14.00;58.70;;;;;;5060319;28;20020;-81
2023/06/17 02:29:32;;;;;;;8.15;6.10;;;14.00;58.60;;;;;;5060224;28;20488;-81
2023/06/17 02:31:58;;;;;;;8.95;6.38;;;14.00;58.70;;;;;;5059548;28;20021;-70
2023/06/17 02:34:23;;;;;;;11.10;6.72;;;14.00;58.70;;;;;;5059174;28;20050;-70
2023/06/17 02:36:49;;;;;;;8.93;6.30;;;14.00;58.80;;;;;;5059042;28;20031;-70
2023/06/17 02:39:15;;;;;;;6.82;5.68;;;14.00;58.90;;;;;;5058894;28;20036;-70
2023/06/17 02:41:41;;;;;;;8.55;6.25;;;14.00;59.00;;;;;;5059139;28;20115;-71
2023/06/17 02:44:07;;;;;;;9.40;5.82;;;14.00;59.00;;;;;;5058801;28;20393;-71
2023/06/17 02:46:32;;;;;;;7.93;5.93;;;14.00;59.00;;;;;;5059009;28;20021;-70
2023/06/17 02:48:58;;;;;;;9.70;6.55;;;14.00;59.00;;;;;;5058881;28;20021;-70
2023/06/17 02:51:23;;;;;;;8.75;6.13;;;14.00;59.00;;;;;;5058832;28;20473;-80
2023/06/17 02:53:49;;;;;;;11.98;6.53;;;14.00;59.00;;;;;;5058575;28;20112;-71
2023/06/17 02:56:15;;;;;;;7.07;6.38;;;14.00;59.00;;;;;;5058503;28;20351;-71
2023/06/17 02:58:43;;;;;;;9.25;6.30;;;13.90;59.30;;;;;;5041011;28;20096;-71
2023/06/17 03:01:09;;;;;;;8.00;5.78;;;13.80;59.60;;;;;;5058683;28;20029;-70
2023/06/17 03:03:34;;;;;;;8.30;6.38;;;13.80;59.70;;;;;;5058648;28;20020;-70
2023/06/17 03:06:09;;;;;;;8.55;5.85;;;13.80;59.80;;;;;;5056324;28;20045;-70
2023/06/17 03:08:38;;;;;;;8.90;6.43;;;13.80;59.80;;;;;;5055366;28;20052;-70
2023/06/17 03:11:03;;;;;;;8.40;6.35;;;13.80;59.90;;;;;;5055374;28;20053;-71
2023/06/17 03:13:29;;;;;;;8.00;6.40;;;13.80;60.00;;;;;;5055421;28;20050;-70
2023/06/17 03:15:58;;;;;;;7.65;6.55;;;13.80;60.00;;;;;;5055537;28;20029;-71
2023/06/17 03:18:23;;;;;;;9.38;6.30;;;13.70;60.40;;;;;;5055288;28;20017;-70
2023/06/17 03:20:51;;;;;;;8.30;5.82;;;13.60;60.70;;;;;;5055184;28;20024;-70
2023/06/17 03:23:17;;;;;;;10.05;6.75;;;13.60;60.70;;;;;;5055613;28;20031;-71
2023/06/17 03:25:44;;;;;;;9.05;6.05;;;13.60;60.70;;;;;;5037306;28;20096;-72
2023/06/17 03:28:09;;;;;;;10.43;6.75;;;13.70;60.70;;;;;;5055423;28;20108;-69
2023/06/17 03:30:37;;;;;;;9.77;6.30;;;13.70;60.80;;;;;;5037301;28;20116;-70
2023/06/17 03:33:03;;;;;;;9.70;5.82;;;13.60;60.70;;;;;;5054990;28;20441;-70
2023/06/17 03:35:28;;;;;;;9.45;5.90;;;13.60;60.70;;;;;;5055118;28;20116;-70
2023/06/17 03:37:54;;;;;;;8.70;6.03;;;13.60;60.70;;;;;;5054897;28;20024;-70
2023/06/17 03:40:19;;;;;;;6.68;5.82;;;13.60;60.80;;;;;;5036965;28;20039;-69
2023/06/17 03:42:45;;;;;;;8.25;5.75;;;13.60;61.00;;;;;;5055160;28;20036;-70
2023/06/17 03:45:11;;;;;;;8.23;6.03;;;13.60;61.30;;;;;;5054759;28;20048;-69
2023/06/17 03:47:36;;;;;;;8.85;6.25;;;13.60;61.10;;;;;;5054513;28;20021;-69
2023/06/17 03:50:02;;;;;;;7.15;6.15;;;13.60;61.00;;;;;;5054637;28;20041;-69
2023/06/17 03:52:27;;;;;;;7.93;6.57;;;13.60;61.20;;;;;;5054664;28;20100;-71
2023/06/17 03:54:54;;;;;;;7.97;5.47;;;13.60;61.20;;;;;;5036694;28;20107;-71
2023/06/17 03:57:19;;;;;;;6.80;5.28;;;13.60;61.20;;;;;;5054629;28;20036;-71
2023/06/17 03:59:45;;;;;;;9.27;5.97;;;13.60;61.00;;;;;;5054658;28;20021;-70
2023/06/17 04:02:11;;;;;;;8.98;5.85;;;13.60;61.10;;;;;;5054459;28;20032;-69
2023/06/17 04:04:37;;;;;;;9.27;5.72;;;13.60;60.90;;;;;;5054327;28;20112;-70
2023/06/17 04:07:02;;;;;;;9.27;5.75;;;13.60;61.00;;;;;;5036544;28;20029;-70
2023/06/17 04:09:28;;;;;;;7.22;5.35;;;13.60;60.90;;;;;;5054146;28;20045;-70
2023/06/17 04:11:54;;;;;;;7.65;5.72;;;13.60;62.00;;;;;;5054363;28;20465;-70
2023/06/17 04:14:19;;;;;;;9.15;6.25;;;13.60;61.30;;;;;;5054216;28;20108;-69
2023/06/17 04:16:45;;;;;;;6.35;5.75;;;13.60;61.10;;;;;;5054017;28;20057;-69
2023/06/17 04:19:13;;;;;;;8.50;5.80;;;13.70;61.00;;;;;;5054123;28;20063;-69
2023/06/17 04:21:40;;;;;;;7.05;5.70;;;13.70;60.70;;;;;;5054107;28;20021;-69
2023/06/17 04:24:06;;;;;;;9.07;5.88;;;13.80;60.50;;;;;;5054400;28;20123;-69
2023/06/17 04:26:32;;;;;;;7.65;6.30;;;13.80;60.20;;;;;;5053928;28;20635;-69
2023/06/17 04:29:00;;;;;;;8.20;6.07;;;13.80;60.10;;;;;;5054121;28;20443;-69
2023/06/17 04:31:27;;;;;;;8.52;5.72;;;13.80;60.40;;;;;;5053982;28;20037;-69
2023/06/17 04:33:53;;;;;;;8.35;5.90;;;13.90;60.30;;;;;;5053927;28;20029;-69
2023/06/17 04:36:20;;;;;;;10.35;6.40;;;14.00;59.90;;;;;;5054175;28;20029;-69
2023/06/17 04:38:49;;;;;;;6.47;5.78;;;14.00;59.80;;;;;;5053837;28;20470;-69
2023/06/17 04:41:15;;;;;;;9.63;6.15;;;14.00;59.80;;;;;;5054026;28;20033;-69
2023/06/17 04:43:45;;;;;;;7.70;5.57;;;14.00;60.10;;;;;;5053479;28;20035;-70
2023/06/17 04:46:12;;;;;;;8.80;6.13;;;14.10;59.70;;;;;;5053493;28;20071;-69
2023/06/17 04:48:38;;;;;;;10.95;5.93;;;14.20;59.40;;;;;;5053602;28;20104;-70
2023/06/17 04:51:05;;;;;;;12.75;6.88;;;14.20;59.10;;;;;;5049282;28;20021;-72
2023/06/17 04:53:31;;;;;;;9.52;5.95;;;14.30;59.20;;;;;;5033790;28;20049;-74
2023/06/17 04:55:56;;;;;;;8.50;6.25;;;14.30;59.10;;;;;;5033586;28;20474;-74
2023/06/17 04:58:22;;;;;;;8.93;6.10;;;14.40;58.90;;;;;;5033501;28;20025;-77
2023/06/17 05:00:47;;;;;;;12.40;5.63;;;14.50;58.60;;;;;;5033693;28;20025;-80
2023/06/17 05:03:13;;;;;;;8.90;6.28;;;14.60;58.30;;;;;;5033516;28;20071;-69
2023/06/17 05:05:38;;;;;;;13.88;6.00;;;14.70;58.00;;;;;;5033269;28;20021;-69
2023/06/17 05:08:04;;;;;;;8.20;5.40;;;14.80;57.70;;;;;;5033189;28;20109;-69
2023/06/17 05:10:30;;;;;;;7.75;5.97;;;14.70;57.80;;;;;;5033117;28;20038;-69
2023/06/17 05:12:55;;;;;;;10.50;6.10;;;14.80;57.70;;;;;;5033220;28;20128;-69
2023/06/17 05:15:21;;;;;;;8.82;6.18;;;14.90;58.40;;;;;;5033114;28;20108;-71
2023/06/17 05:17:46;;;;;;;8.43;5.40;;;15.00;57.10;;;;;;5033059;28;20655;-69
2023/06/17 05:20:12;;;;;;;9.48;6.13;;;15.10;57.10;;;;;;5033102;28;20470;-69
2023/06/17 05:22:38;;;;;;;9.75;5.88;;;15.20;56.80;;;;;;5033007;28;20099;-69
2023/06/17 05:25:04;;;;;;;10.23;6.65;;;15.30;56.70;;;;;;5032802;28;20023;-71
2023/06/17 05:27:29;;;;;;;7.47;6.00;;;15.40;56.50;;;;;;5032866;28;20040;-70
2023/06/17 05:29:55;;;;;;;8.05;5.57;;;15.50;56.40;;;;;;5032543;28;20104;-71
2023/06/17 05:32:22;;;;;;;8.32;6.22;;;15.70;56.10;;;;;;5032790;28;20041;-72
2023/06/17 05:34:48;;;;;;;8.02;5.22;;;15.80;55.80;;;;;;5032996;28;20075;-78
2023/06/17 05:37:14;;;;;;;9.68;5.63;;;16.00;55.50;;;;;;5032773;28;20436;-78
2023/06/17 05:39:40;;;;;;;7.93;5.63;;;16.10;55.40;;;;;;5032910;28;20128;-78
2023/06/17 05:42:05;;;;;;;7.70;6.03;;;16.20;55.50;;;;;;5032607;28;20018;-76
2023/06/17 05:44:31;;;;;;;9.43;5.88;;;16.20;55.60;;;;;;5032687;28;20033;-75
2023/06/17 05:46:56;;;;;;;8.38;5.57;;;16.20;55.70;;;;;;5032741;28;20095;-74
2023/06/17 05:49:22;;;;;;;6.72;5.53;;;16.30;55.70;;;;;;5032747;28;20083;-75
2023/06/17 05:51:47;;;;;;;8.82;5.47;;;16.40;55.60;;;;;;5032584;28;20102;-71
2023/06/17 05:54:13;;;;;;;12.43;5.60;;;16.50;55.30;;;;;;5032491;28;20025;-74
2023/06/17 05:56:38;;;;;;;6.32;5.30;;;16.50;55.10;;;;;;5032674;28;20025;-74
2023/06/17 05:59:04;;;;;;;7.75;6.05;;;16.70;55.20;;;;;;5032571;28;20104;-77
2023/06/17 06:01:29;;;;;;;8.32;5.80;;;16.70;55.10;;;;;;5032827;28;20013;-74
2023/06/17 06:03:55;;;;;;;7.97;5.80;;;16.80;54.70;;;;;;5033605;28;20031;-71
2023/06/17 06:06:21;;;;;;;7.93;5.57;;;16.90;54.50;;;;;;5034539;28;20079;-76
2023/06/17 06:08:47;;;;;;;7.43;5.72;;;16.90;54.90;;;;;;5033481;28;20069;-77
2023/06/17 06:11:12;;;;;;;9.32;5.90;;;17.00;54.60;;;;;;5033505;28;20442;-74
2023/06/17 06:13:38;;;;;;;10.88;6.18;;;17.00;54.10;;;;;;5032942;28;20018;-74
2023/06/17 06:16:05;;;;;;;7.97;5.15;;;17.10;53.90;;;;;;5032689;28;20449;-76
2023/06/17 06:18:31;;;;;;;11.40;6.07;;;17.30;53.70;;;;;;5032591;28;20037;-79
2023/06/17 06:20:56;;;;;;;10.70;6.03;;;17.40;53.50;;;;;;5032614;28;20025;-79
2023/06/17 06:23:22;;;;;;;7.68;5.70;;;17.60;53.30;;;;;;5032333;28;20026;-71
2023/06/17 06:25:47;;;;;;;14.00;6.13;;;17.70;53.20;;;;;;5032328;28;20456;-71
2023/06/17 06:28:13;;;;;;;8.13;5.38;;;17.90;52.70;;;;;;5032156;28;20084;-70
2023/06/17 06:30:38;;;;;;;10.70;5.90;;;18.10;52.60;;;;;;5031954;28;20038;-70
2023/06/17 06:33:04;;;;;;;12.15;6.18;;;18.30;52.20;;;;;;5032288;28;20100;-70
2023/06/17 06:35:29;;;;;;;12.10;5.80;;;18.50;52.00;;;;;;5031762;28;20026;-69
2023/06/17 06:37:55;;;;;;;7.63;5.22;;;18.70;51.30;;;;;;5032331;28;20467;-71
2023/06/17 06:40:21;;;;;;;8.93;6.32;;;18.90;50.70;;;;;;5032086;28;20087;-74
2023/06/17 06:42:46;;;;;;;10.27;5.68;;;19.10;49.40;;;;;;5035335;28;20021;-71
2023/06/17 06:45:12;;;;;;;12.40;5.43;;;19.20;48.80;;;;;;5035854;28;20501;-75
2023/06/17 06:47:37;;;;;;;10.07;5.95;;;19.40;48.00;;;;;;5035944;28;20022;-72
2023/06/17 06:50:03;;;;;;;9.55;6.03;;;19.50;47.20;;;;;;5018010;28;20363;-71
2023/06/17 06:52:29;;;;;;;7.60;5.70;;;19.70;46.50;;;;;;5035723;28;20091;-71
2023/06/17 06:54:54;;;;;;;10.50;5.60;;;19.80;46.80;;;;;;5035678;28;20025;-74
2023/06/17 06:57:21;;;;;;;11.30;5.88;;;20.00;46.60;;;;;;5035719;28;20026;-69
2023/06/17 06:59:46;;;;;;;8.07;5.53;;;20.10;47.50;;;;;;5035521;28;20029;-71
2023/06/17 07:02:12;;;;;;;12.63;5.85;;;20.40;47.70;;;;;;5035592;28;20030;-71
2023/06/17 07:04:37;;;;;;;10.38;6.18;;;20.70;46.40;;;;;;5035476;28;20022;-69
2023/06/17 07:07:04;;;;;;;23.00;6.68;;;20.80;45.00;;;;;;5035405;28;20458;-69
2023/06/17 07:09:29;;;;;;;13.13;5.53;;;21.00;45.00;;;;;;5035257;28;20037;-70
2023/06/17 07:11:56;;;;;;;11.80;6.10;;;21.00;44.10;;;;;;5035460;28;20057;-70
2023/06/17 07:14:21;;;;;;;10.68;6.10;;;21.20;44.10;;;;;;5035288;28;20474;-71
2023/06/17 07:16:47;;;;;;;11.38;5.57;;;21.40;43.40;;;;;;5035348;28;20052;-72
2023/06/17 07:19:12;;;;;;;9.68;5.38;;;21.50;43.10;;;;;;5035173;28;20033;-72
2023/06/17 07:21:38;;;;;;;8.00;4.88;;;21.70;42.70;;;;;;5035288;28;20112;-72
2023/06/17 07:24:04;;;;;;;9.98;5.15;;;22.00;41.80;;;;;;5035216;28;20061;-74
2023/06/17 07:26:29;;;;;;;10.15;5.47;;;22.20;41.30;;;;;;5035171;28;20026;-77
2023/06/17 07:28:55;;;;;;;7.53;5.35;;;22.40;40.30;;;;;;5035285;28;20025;-76
2023/06/17 07:31:22;;;;;;;8.98;4.95;;;22.60;39.40;;;;;;5035086;28;20525;-78
2023/06/17 07:33:47;;;;;;;7.35;6.03;;;22.70;39.00;;;;;;5034671;28;20056;-78
2023/06/17 07:36:13;;;;;;;14.05;6.60;;;22.80;38.10;;;;;;5034617;28;20053;-74
2023/06/17 07:38:38;;;;;;;6.35;4.95;;;22.80;38.50;;;;;;5034874;28;20026;-78
2023/06/17 07:41:04;;;;;;;7.72;5.65;;;22.90;38.20;;;;;;5034966;28;20056;-75
2023/06/17 07:43:30;;;;;;;7.20;5.15;;;23.00;36.00;;;;;;5017435;28;20445;-77
2023/06/17 07:45:56;;;;;;;8.90;5.85;;;23.10;34.50;;;;;;5035102;28;20393;-76
2023/06/17 07:48:21;;;;;;;7.45;5.32;;;23.20;35.60;;;;;;5034723;28;20033;-76
2023/06/17 07:50:47;;;;;;;8.23;5.15;;;23.40;33.90;;;;;;5034599;28;20034;-76
2023/06/17 07:53:13;;;;;;;7.43;5.72;;;23.40;31.30;;;;;;5034267;28;20037;-75
2023/06/17 07:55:39;;;;;;;8.38;6.00;;;23.30;30.20;;;;;;5034537;28;20021;-70
2023/06/17 07:58:05;;;;;;;10.60;6.00;;;23.30;30.90;;;;;;5016400;28;20029;-70
2023/06/17 08:00:30;;;;;;;10.55;5.75;;;23.30;30.00;;;;;;5034574;28;20389;-71
2023/06/17 08:02:56;;;;;;;8.50;5.50;;;23.20;30.50;;;;;;5034443;28;20022;-72
2023/06/17 08:05:21;;;;;;;6.07;5.38;;;23.20;29.70;;;;;;5034389;28;20489;-71
2023/06/17 08:07:47;;;;;;;7.90;5.65;;;23.20;30.30;;;;;;5013195;28;20092;-70
2023/06/17 08:10:13;;;;;;;10.07;5.22;;;23.30;29.90;;;;;;5014443;28;20033;-70
2023/06/17 08:12:38;;;;;;;7.03;5.47;;;23.10;29.10;;;;;;5014436;28;20065;-72
2023/06/17 08:15:05;;;;;;;9.63;5.70;;;23.20;29.70;;;;;;5014475;28;20467;-76
2023/06/17 08:17:31;;;;;;;7.55;5.63;;;23.20;29.90;;;;;;5014593;28;20394;-75
2023/06/17 08:19:57;;;;;;;6.60;5.68;;;23.30;30.30;;;;;;5014556;28;20050;-75
2023/06/17 08:22:22;;;;;;;11.23;5.68;;;23.40;28.00;;;;;;5014467;28;20072;-80
2023/06/17 08:24:48;;;;;;;8.45;5.63;;;23.40;29.00;;;;;;5012867;28;20026;-75
2023/06/17 08:27:14;;;;;;;7.43;5.47;;;23.40;27.50;;;;;;5008617;28;20022;-75
2023/06/17 08:29:40;;;;;;;6.70;5.22;;;23.50;26.60;;;;;;5006446;28;20022;-75
2023/06/17 08:32:06;;;;;;;8.07;5.53;;;23.70;28.40;;;;;;5006266;28;20057;-73
2023/06/17 08:34:32;;;;;;;8.55;5.35;;;23.90;25.90;;;;;;5011174;28;20478;-74
2023/06/17 08:37:03;;;;;;;9.93;5.38;;;23.90;23.60;;;;;;5005216;28;20022;-76
2023/06/17 08:39:29;;;;;;;6.47;5.20;;;24.00;22.80;;;;;;5007029;28;20018;-77
2023/06/17 08:41:56;;;;;;;6.75;4.95;;;24.20;24.00;;;;;;5012419;28;20038;-77
2023/06/17 08:44:22;;;;;;;11.77;5.43;;;24.30;24.80;;;;;;5013995;28;20056;-76
2023/06/17 08:46:51;;;;;;;7.13;5.60;;;24.40;25.80;;;;;;5013707;28;20032;-76
2023/06/17 08:49:18;;;;;;;7.65;5.53;;;24.40;23.50;;;;;;5012311;28;20053;-73
2023/06/17 08:51:48;;;;;;;9.98;5.47;;;24.20;24.70;;;;;;5010073;28;20058;-74
2023/06/17 08:54:14;;;;;;;10.90;5.63;;;24.10;25.20;;;;;;5003267;28;20048;-73
2023/06/17 08:56:40;;;;;;;6.40;5.68;;;24.00;24.70;;;;;;5004758;28;20014;-77
2023/06/17 08:59:06;;;;;;;9.10;5.55;;;23.90;25.30;;;;;;5004533;28;20030;-74
2023/06/17 09:01:32;;;;;;;8.95;5.40;;;24.00;23.30;;;;;;5003844;28;20022;-72
2023/06/17 09:04:07;;;;;;;7.43;5.00;;;24.10;24.00;;;;;;5001307;28;20040;-71
2023/06/17 09:06:33;;;;;;;8.15;5.22;;;24.30;24.00;;;;;;5002185;28;20018;-73
2023/06/17 09:08:59;;;;;;;7.60;5.53;;;24.40;21.80;;;;;;5018357;28;20474;-76
2023/06/17 09:11:27;;;;;;;9.15;5.05;;;24.50;22.10;;;;;;5004297;28;20030;-76
2023/06/17 09:13:55;;;;;;;7.15;5.00;;;24.30;22.10;;;;;;5022851;28;20187;-74
2023/06/17 09:16:26;;;;;;;8.07;5.38;;;24.20;21.90;;;;;;5006561;28;20052;-72
2023/06/17 09:18:55;;;;;;;6.90;4.97;;;24.10;22.30;;;;;;5023191;28;20026;-73
2023/06/17 09:21:23;;;;;;;8.57;5.22;;;24.20;21.50;;;;;;5023656;28;20033;-73
2023/06/17 09:23:57;;;;;;;9.85;4.78;;;24.10;20.50;;;;;;5022675;28;20490;-73
2023/06/17 09:26:50;;;;;;;9.43;5.13;;;24.00;21.60;;;;;;5005150;28;20033;-73
2023/06/17 09:29:16;;;;;;;9.32;5.30;;;23.90;22.20;;;;;;5023131;28;20025;-72
2023/06/17 09:31:55;;;;;;;5.45;4.55;;;23.90;22.70;;;;;;5022695;28;20042;-70
2023/06/17 09:34:22;;;;;;;9.20;4.75;;;24.00;22.00;;;;;;5022134;28;20127;-72
2023/06/17 09:37:00;;;;;;;6.35;4.97;;;24.20;22.90;;;;;;5022354;28;20022;-73
2023/06/17 09:39:33;;;;;;;5.97;5.20;;;24.40;21.60;;;;;;5023736;28;20018;-72
2023/06/17 09:42:08;;;;;;;8.35;5.10;;;24.60;21.30;;;;;;5034291;28;20548;-71
2023/06/17 09:44:38;;;;;;;9.55;5.00;;;24.80;21.40;;;;;;5033232;28;20037;-73
2023/06/17 09:47:08;;;;;;;5.97;4.75;;;25.10;21.30;;;;;;5021251;28;20024;-78
2023/06/17 09:49:35;;;;;;;7.25;4.72;;;25.40;22.00;;;;;;5032881;28;20025;-73
2023/06/17 09:52:05;;;;;;;7.57;4.50;;;25.70;21.10;;;;;;5032507;28;20113;-74
2023/06/17 09:54:32;;;;;;;6.13;4.30;;;25.90;20.30;;;;;;5035387;28;20144;-72
2023/06/17 09:57:01;;;;;;;8.98;4.72;;;26.10;19.90;;;;;;5014807;28;20025;-75
2023/06/17 09:59:28;;;;;;;5.50;4.63;;;26.40;19.40;;;;;;5006685;28;20088;-77
2023/06/17 10:01:54;;;;;;;5.07;4.13;;;26.50;18.90;;;;;;5021305;28;20014;-80
2023/06/17 10:04:21;;;;;;;9.85;4.90;;;26.60;18.40;;;;;;5022842;28;20022;-72
2023/06/17 10:06:49;;;;;;;8.27;4.82;;;26.60;17.20;;;;;;5030825;28;20056;-79
2023/06/17 10:09:15;;;;;;;6.75;5.05;;;26.60;17.70;;;;;;5044892;28;20049;-77
2023/06/17 10:11:46;;;;;;;7.53;5.30;;;26.60;18.30;;;;;;5051560;28;20583;-76
2023/06/17 10:14:17;;;;;;;6.93;5.30;;;26.60;18.20;;;;;;5034161;28;20021;-84
2023/06/17 10:16:48;;;;;;;6.68;5.25;;;26.30;19.00;;;;;;5055938;28;20021;-78
2023/06/17 10:19:17;;;;;;;8.68;4.82;;;26.40;18.90;;;;;;5038538;28;20473;-80
2023/06/17 10:21:46;;;;;;;7.82;4.63;;;26.30;19.30;;;;;;5056468;28;20036;-82
2023/06/17 10:24:13;;;;;;;7.15;4.55;;;26.40;19.80;;;;;;5056576;28;20416;-80
2023/06/17 10:26:39;;;;;;;6.70;5.07;;;26.60;19.00;;;;;;5056264;28;20025;-83
2023/06/17 10:29:10;;;;;;;6.13;4.80;;;26.20;19.40;;;;;;5056095;28;20393;-82
2023/06/17 10:31:42;;;;;;;8.18;5.05;;;25.80;19.30;;;;;;5056280;28;20128;-83
2023/06/17 10:34:16;;;;;;;5.13;4.53;;;26.00;20.70;;;;;;5056159;28;20478;-70
2023/06/17 10:36:47;;;;;;;7.40;5.25;;;26.30;19.30;;;;;;5056092;28;20044;-70
2023/06/17 10:39:13;;;;;;;6.43;5.20;;;26.40;19.80;;;;;;5055848;28;20497;-70
2023/06/17 10:41:38;;;;;;;7.15;5.20;;;26.60;18.40;;;;;;5055828;28;20025;-70
2023/06/17 10:44:27;;;;;;;5.88;4.78;;;26.50;18.90;;;;;;5055869;28;20017;-70
2023/06/17 10:46:53;;;;;;;7.85;5.22;;;26.80;17.60;;;;;;5055691;28;20032;-70
2023/06/17 10:49:19;;;;;;;7.78;5.20;;;26.70;17.90;;;;;;5055828;28;20021;-70
2023/06/17 10:51:46;;;;;;;7.50;4.80;;;26.80;17.40;;;;;;5055564;28;20036;-70
2023/06/17 10:54:11;;;;;;;9.10;5.22;;;26.70;17.40;;;;;;5055779;28;20036;-70
2023/06/17 10:56:53;;;;;;;6.60;4.88;;;26.70;16.40;;;;;;5055629;28;20469;-70
2023/06/17 10:59:28;;;;;;;6.50;4.70;;;26.90;16.30;;;;;;5055563;28;20033;-70
2023/06/17 11:02:03;;;;;;;;;;;27.20;16.60;;;;;;5056043;28;20029;-70
2023/06/17 11:04:33;;;;;;;7.78;4.82;;;27.30;17.80;;;;;;5055610;28;19909;-69
2023/06/17 11:06:59;;;;;;;11.00;4.55;;;27.50;17.00;;;;;;5055479;28;20029;-73
2023/06/17 11:09:28;;;;;;;7.85;4.55;;;27.70;17.00;;;;;;5055491;28;20048;-81
2023/06/17 11:11:55;;;;;;;5.53;4.72;;;27.50;16.40;;;;;;5037634;28;20063;-84
2023/06/17 11:14:22;;;;;;;7.80;4.75;;;27.50;16.70;;;;;;5055605;28;20025;-78
2023/06/17 11:16:49;;;;;;;10.85;5.05;;;27.60;16.40;;;;;;5055447;28;20478;-71
2023/06/17 11:19:15;;;;;;;5.85;4.53;;;27.60;16.80;;;;;;5055065;28;20029;-70
2023/06/17 11:21:41;;;;;;;5.80;4.18;;;27.90;16.90;;;;;;5055522;28;20429;-70
2023/06/17 11:24:09;;;;;;;6.10;4.50;;;27.70;15.60;;;;;;5055040;28;20021;-70
2023/06/17 11:26:35;;;;;;;5.82;4.57;;;27.80;16.10;;;;;;5054546;28;20021;-70
2023/06/17 11:29:01;;;;;;;5.80;4.28;;;28.00;15.90;;;;;;5054759;28;20029;-70
2023/06/17 11:31:26;;;;;;;6.63;4.57;;;28.10;15.60;;;;;;5036906;28;20033;-70
2023/06/17 11:33:59;;;;;;;7.68;4.38;;;28.10;15.80;;;;;;5054745;28;20465;-70
2023/06/17 11:36:26;;;;;;;5.85;4.70;;;28.30;14.70;;;;;;5054714;28;20499;-71
2023/06/17 11:38:55;;;;;;;7.00;4.10;;;28.60;15.50;;;;;;5054291;28;20025;-71
2023/06/17 11:41:22;;;;;;;4.35;3.83;;;28.70;14.70;;;;;;5054761;28;20143;-71
2023/06/17 11:43:48;;;;;;;6.45;4.45;;;28.70;15.60;;;;;;5054504;28;20358;-70
2023/06/17 11:46:20;;;;;;;7.00;4.10;;;28.80;14.50;;;;;;5054524;28;20021;-72
2023/06/17 11:48:46;;;;;;;5.93;4.15;;;28.60;14.90;;;;;;5054500;28;20021;-79
2023/06/17 11:51:16;;;;;;;5.78;4.63;;;28.40;14.40;;;;;;5054315;28;20048;-80
2023/06/17 11:53:45;;;;;;;6.28;4.45;;;28.30;14.40;;;;;;5054360;28;20017;-75
2023/06/17 11:56:12;;;;;;;8.63;3.85;;;28.10;15.40;;;;;;5036346;28;20531;-74
2023/06/17 11:58:42;;;;;;;4.93;4.13;;;28.40;15.40;;;;;;5036247;28;20025;-79
2023/06/17 12:01:12;;;;;;;5.10;4.00;;;28.70;14.20;;;;;;5054677;28;20385;-80
2023/06/17 12:03:38;;;;;;;4.93;4.22;;;28.80;14.10;;;;;;5054747;28;20028;-75
2023/06/17 12:06:04;;;;;;;8.65;4.70;;;28.60;13.60;;;;;;5054308;28;20021;-71
2023/06/17 12:08:35;;;;;;;5.72;3.95;;;28.40;13.80;;;;;;5054162;28;20092;-77
2023/06/17 12:11:06;;;;;;;4.28;3.80;;;27.90;14.90;;;;;;5054172;28;20041;-77
2023/06/17 12:13:39;;;;;;;5.47;3.90;;;27.50;15.40;;;;;;5036372;28;20090;-81
2023/06/17 12:16:10;;;;;;;7.38;4.75;;;27.20;16.00;;;;;;5054171;28;20032;-77
2023/06/17 12:18:36;;;;;;;6.30;4.07;;;26.70;16.10;;;;;;5054491;28;20024;-78
2023/06/17 12:21:09;;;;;;;6.15;4.22;;;26.60;15.60;;;;;;5054374;28;20033;-80
2023/06/17 12:23:34;;;;;;;7.15;4.40;;;26.50;15.90;;;;;;5054263;28;20071;-83
2023/06/17 12:26:01;;;;;;;5.28;3.88;;;26.70;15.90;;;;;;5054218;28;20033;-81
2023/06/17 12:28:26;;;;;;;10.55;3.97;;;27.20;16.50;;;;;;5054167;28;20024;-79
2023/06/17 12:30:52;;;;;;;5.30;4.20;;;27.80;15.90;;;;;;5054015;28;20041;-79
2023/06/17 12:33:17;;;;;;;5.53;4.20;;;28.40;14.50;;;;;;5054030;28;20428;-70
2023/06/17 12:35:43;;;;;;;7.38;3.72;;;28.90;13.70;;;;;;5053992;28;20029;-81
2023/06/17 12:38:09;;;;;;;8.35;3.88;;;29.00;13.90;;;;;;5053685;28;20048;-81
2023/06/17 12:40:35;;;;;;;6.90;3.85;;;29.00;13.40;;;;;;5054542;28;20029;-80
2023/06/17 12:43:00;;;;;;;6.65;3.60;;;29.30;14.10;;;;;;5054856;28;20071;-81
2023/06/17 12:45:27;;;;;;;7.10;3.80;;;29.40;13.80;;;;;;5058530;28;20036;-80